Time;durP1;ratioP1;P1;durP2;ratioP2;P2;SDS_P1;SDS_P2;PMS_P1;PMS_P2;Temp;Humidity;BMP_temperature;BMP_pressure;BME280_temperature;BME280_humidity;BME280_pressure;Samples;Min_cycle;Max_cycle;Signal;HPM_P1;HPM_P2
2021/09/02 00:01:57;;;;;;;12.68;6.43;;;;;;;13.86;83.47;102428.34;5029241;28;20045;-65
2021/09/02 00:04:24;;;;;;;11.93;6.78;;;;;;;13.79;83.42;102429.28;5027124;28;20385;-66
2021/09/02 00:06:52;;;;;;;12.13;6.25;;;;;;;13.78;83.42;102423.16;5044842;28;20195;-65
2021/09/02 00:09:18;;;;;;;14.13;7.10;;;;;;;13.76;83.35;102424.06;5018615;28;20046;-66
2021/09/02 00:11:45;;;;;;;14.70;6.80;;;;;;;13.66;84.08;102426.72;5020365;28;20048;-66
2021/09/02 00:14:11;;;;;;;12.68;6.70;;;;;;;13.70;83.98;102429.31;5018669;28;20501;-66
2021/09/02 00:16:37;;;;;;;10.90;6.25;;;;;;;13.68;83.89;102429.31;5029750;28;20045;-65
2021/09/02 00:19:04;;;;;;;12.57;6.78;;;;;;;13.67;84.38;102428.47;5019020;28;20120;-66
2021/09/02 00:21:30;;;;;;;16.98;8.07;;;;;;;13.66;84.11;102438.94;5027922;28;20049;-65
2021/09/02 00:23:58;;;;;;;15.30;6.70;;;;;;;13.65;84.36;102429.34;5031140;28;20041;-66
2021/09/02 00:26:25;;;;;;;11.77;6.50;;;;;;;13.63;84.52;102424.09;5025848;28;20505;-66
2021/09/02 00:28:51;;;;;;;13.95;7.13;;;;;;;13.61;84.76;102423.28;5029860;28;20049;-66
2021/09/02 00:31:18;;;;;;;17.10;7.28;;;;;;;13.53;85.41;102430.25;5018214;28;20054;-65
2021/09/02 00:33:44;;;;;;;16.23;7.40;;;;;;;13.47;85.63;102422.44;5011898;28;20464;-65
2021/09/02 00:36:11;;;;;;;22.17;8.27;;;;;;;13.44;85.70;102425.06;5026068;28;20056;-65
2021/09/02 00:38:38;;;;;;;11.70;7.10;;;;;;;13.43;85.69;102424.22;5025859;28;20768;-65
2021/09/02 00:41:05;;;;;;;11.50;6.20;;;;;;;13.41;85.82;102419.88;5022588;28;20042;-66
2021/09/02 00:43:37;;;;;;;15.32;6.75;;;;;;;13.37;86.02;102417.22;5043641;28;20053;-65
2021/09/02 00:46:04;;;;;;;14.88;7.45;;;;;;;13.34;85.76;102421.59;5020241;28;20128;-66
2021/09/02 00:48:30;;;;;;;13.13;7.68;;;;;;;13.29;85.80;102418.13;5019617;28;20054;-66
2021/09/02 00:50:57;;;;;;;22.27;7.20;;;;;;;13.24;85.86;102417.28;5028807;28;20071;-65
2021/09/02 00:53:23;;;;;;;14.38;6.68;;;;;;;13.20;85.47;102419.03;5028028;28;20049;-66
2021/09/02 00:55:50;;;;;;;16.50;7.88;;;;;;;13.14;86.20;102416.44;5025495;28;20108;-66
2021/09/02 00:58:20;;;;;;;12.18;6.60;;;;;;;13.14;85.72;102411.19;5020534;28;20050;-66
2021/09/02 01:00:47;;;;;;;12.10;6.97;;;;;;;13.15;86.13;102413.81;5017587;28;20045;-65
2021/09/02 01:03:13;;;;;;;15.05;6.22;;;;;;;13.13;85.76;102414.69;5020916;28;20714;-66
2021/09/02 01:05:40;;;;;;;13.23;6.78;;;;;;;13.04;85.93;102419.06;5015597;28;20057;-66
2021/09/02 01:08:07;;;;;;;15.15;6.65;;;;;;;13.04;85.66;102406.00;5020326;28;20448;-65
2021/09/02 01:10:34;;;;;;;12.57;6.68;;;;;;;13.09;86.00;102420.81;5019965;28;20045;-66
2021/09/02 01:13:00;;;;;;;11.70;6.53;;;;;;;13.10;85.75;102422.56;5017077;28;20063;-65
2021/09/02 01:15:28;;;;;;;10.52;6.03;;;;;;;13.10;85.16;102419.94;5021673;28;20053;-66
2021/09/02 01:17:57;;;;;;;13.27;6.20;;;;;;;13.06;85.27;102417.31;5024809;28;20099;-65
2021/09/02 01:20:25;;;;;;;12.55;6.20;;;;;;;13.03;85.30;102413.84;5017433;28;20080;-66
2021/09/02 01:22:53;;;;;;;12.80;6.60;;;;;;;13.01;85.35;102413.88;5013606;28;20050;-66
2021/09/02 01:25:23;;;;;;;15.18;6.45;;;;;;;12.98;85.24;102411.25;5017041;28;20049;-66
2021/09/02 01:27:53;;;;;;;14.85;6.22;;;;;;;12.93;85.39;102415.59;5027370;28;20073;-66
2021/09/02 01:30:20;;;;;;;13.45;6.80;;;;;;;12.91;85.60;102417.38;5022175;28;20521;-66
2021/09/02 01:32:49;;;;;;;13.77;6.53;;;;;;;12.79;85.33;102414.78;5019093;28;20053;-66
2021/09/02 01:35:16;;;;;;;12.80;6.05;;;;;;;12.75;85.57;102413.91;5017981;28;20046;-66
2021/09/02 01:37:44;;;;;;;13.20;6.43;;;;;;;12.77;86.10;102412.19;5018150;28;20049;-66
2021/09/02 01:40:14;;;;;;;10.80;5.80;;;;;;;12.77;86.44;102413.91;5021242;28;20452;-67
2021/09/02 01:42:42;;;;;;;11.27;6.18;;;;;;;12.74;85.88;102412.16;5024005;28;20041;-66
2021/09/02 01:45:09;;;;;;;10.80;5.90;;;;;;;12.74;85.97;102410.41;5022971;28;20054;-66
2021/09/02 01:47:35;;;;;;;12.73;6.10;;;;;;;12.72;86.11;102416.50;5023765;28;20061;-66
2021/09/02 01:50:08;;;;;;;12.63;5.90;;;;;;;12.69;86.44;102416.50;5020119;28;20446;-65
2021/09/02 01:52:35;;;;;;;8.40;6.07;;;;;;;12.66;86.31;102412.16;5019309;28;20116;-66
2021/09/02 01:55:02;;;;;;;11.27;6.72;;;;;;;12.63;86.10;102406.09;5023928;28;20049;-66
2021/09/02 01:57:28;;;;;;;12.98;5.90;;;;;;;12.64;86.52;102400.00;5026001;28;20123;-66
2021/09/02 01:59:56;;;;;;;15.40;6.95;;;;;;;12.62;86.48;102414.78;5022896;28;20433;-66
2021/09/02 02:02:22;;;;;;;12.77;6.20;;;;;;;12.55;86.32;102413.91;5021608;28;20119;-66
2021/09/02 02:04:49;;;;;;;13.02;6.65;;;;;;;12.49;86.65;102408.72;5023176;28;20045;-66
2021/09/02 02:07:15;;;;;;;10.02;5.90;;;;;;;12.48;86.87;102412.19;5024122;28;20050;-65
2021/09/02 02:09:42;;;;;;;14.13;6.65;;;;;;;12.50;86.71;102411.31;5035930;28;20102;-65
2021/09/02 02:12:09;;;;;;;18.00;6.22;;;;;;;12.39;86.78;102413.03;5023771;28;20050;-66
2021/09/02 02:14:37;;;;;;;12.02;6.32;;;;;;;12.37;86.82;102410.44;5021161;28;20079;-65
2021/09/02 02:17:05;;;;;;;11.48;6.55;;;;;;;12.36;86.96;102410.44;5018044;28;20054;-65
2021/09/02 02:19:31;;;;;;;14.23;6.72;;;;;;;12.38;87.06;102406.97;5020468;28;20509;-65
2021/09/02 02:21:58;;;;;;;14.38;6.60;;;;;;;12.37;87.09;102410.44;5025170;28;20045;-65
2021/09/02 02:24:25;;;;;;;10.82;6.03;;;;;;;12.33;87.06;102395.63;5018613;28;20045;-65
2021/09/02 02:26:51;;;;;;;15.23;6.80;;;;;;;12.33;86.89;102400.00;5016914;28;20691;-65
2021/09/02 02:29:17;;;;;;;14.57;7.13;;;;;;;12.31;87.19;102405.22;5023377;28;20041;-65
2021/09/02 02:31:44;;;;;;;12.98;6.07;;;;;;;12.28;87.31;102395.63;5027520;28;20049;-65
2021/09/02 02:34:12;;;;;;;9.13;5.75;;;;;;;12.28;86.97;102397.41;5019029;28;20045;-64
2021/09/02 02:36:38;;;;;;;11.48;6.45;;;;;;;12.26;87.17;102399.13;5023786;28;20049;-65
2021/09/02 02:39:05;;;;;;;14.27;7.07;;;;;;;12.26;86.71;102392.19;5023702;28;20053;-65
2021/09/02 02:41:32;;;;;;;11.85;6.95;;;;;;;12.28;87.30;102394.78;5019406;28;20053;-66
2021/09/02 02:43:59;;;;;;;11.05;5.95;;;;;;;12.22;87.44;102393.03;5019860;28;20050;-65
2021/09/02 02:46:26;;;;;;;10.70;6.40;;;;;;;12.24;87.04;102393.03;5036562;28;20049;-65
2021/09/02 02:48:53;;;;;;;14.27;6.68;;;;;;;12.21;87.35;102393.06;5018964;28;20100;-65
2021/09/02 02:51:21;;;;;;;12.82;6.25;;;;;;;12.17;87.00;102397.41;5024093;28;20099;-65
2021/09/02 02:53:47;;;;;;;11.45;6.00;;;;;;;12.20;86.99;102400.00;5028992;28;20056;-65
2021/09/02 02:56:13;;;;;;;13.60;6.55;;;;;;;12.20;87.05;102392.16;5018903;28;20054;-65
2021/09/02 02:58:40;;;;;;;14.02;6.93;;;;;;;12.13;86.98;102393.91;5019274;28;20048;-65
2021/09/02 03:01:06;;;;;;;11.00;6.22;;;;;;;12.12;87.03;102392.19;5028096;28;20037;-65
2021/09/02 03:03:33;;;;;;;11.43;6.90;;;;;;;12.11;87.04;102390.44;5026328;28;20417;-65
2021/09/02 03:05:59;;;;;;;11.40;6.68;;;;;;;12.12;87.12;102386.06;5018163;28;20049;-65
2021/09/02 03:08:27;;;;;;;10.68;7.10;;;;;;;12.10;86.60;102383.47;5024825;28;20053;-65
2021/09/02 03:10:53;;;;;;;15.50;7.38;;;;;;;12.09;86.51;102386.94;5024688;28;20041;-65
2021/09/02 03:13:20;;;;;;;12.50;6.40;;;;;;;12.06;87.00;102392.16;5022521;28;20046;-66
2021/09/02 03:15:46;;;;;;;16.33;6.53;;;;;;;12.03;86.97;102388.69;5019236;28;20424;-66
2021/09/02 03:18:13;;;;;;;12.23;6.65;;;;;;;12.00;86.92;102389.56;5025278;28;20054;-65
2021/09/02 03:20:39;;;;;;;12.00;7.25;;;;;;;11.97;87.12;102379.06;5022563;28;20049;-65
2021/09/02 03:23:06;;;;;;;13.07;6.68;;;;;;;11.98;87.41;102381.72;5020401;28;20049;-66
2021/09/02 03:25:33;;;;;;;17.63;6.82;;;;;;;11.95;87.42;102389.50;5023022;28;20052;-67
2021/09/02 03:28:00;;;;;;;12.10;6.68;;;;;;;11.95;87.78;102381.69;5024844;28;20425;-66
2021/09/02 03:30:26;;;;;;;13.90;7.10;;;;;;;11.94;87.63;102392.97;5016640;28;20052;-66
2021/09/02 03:32:53;;;;;;;13.77;7.25;;;;;;;11.79;87.85;102391.22;5026273;28;20394;-66
2021/09/02 03:35:19;;;;;;;12.00;6.90;;;;;;;11.79;87.99;102395.53;5017662;28;20053;-66
2021/09/02 03:37:46;;;;;;;13.73;6.70;;;;;;;11.80;88.17;102397.28;5030530;28;20519;-66
2021/09/02 03:40:13;;;;;;;11.52;7.53;;;;;;;11.81;88.06;102397.31;5022498;28;20532;-65
2021/09/02 03:42:40;;;;;;;12.35;7.35;;;;;;;11.78;88.27;102397.28;5025092;28;20236;-66
2021/09/02 03:45:08;;;;;;;11.57;6.80;;;;;;;11.79;88.15;102399.03;5021632;28;20096;-66
2021/09/02 03:47:35;;;;;;;14.23;6.65;;;;;;;11.81;88.36;102389.50;5026831;28;20049;-65
2021/09/02 03:50:01;;;;;;;9.80;6.75;;;;;;;11.84;88.72;102388.63;5018652;28;20046;-65
2021/09/02 03:52:29;;;;;;;11.95;6.28;;;;;;;11.88;88.62;102382.53;5026884;28;20057;-66
2021/09/02 03:54:55;;;;;;;17.30;7.53;;;;;;;11.88;88.88;102387.75;5031451;28;20500;-66
2021/09/02 03:57:21;;;;;;;16.63;7.03;;;;;;;11.89;88.79;102386.88;5024642;28;20049;-66
2021/09/02 03:59:49;;;;;;;13.57;6.90;;;;;;;11.89;88.50;102388.63;5021855;28;20046;-66
2021/09/02 04:02:16;;;;;;;13.35;7.20;;;;;;;11.86;89.05;102386.88;5016683;28;20516;-67
2021/09/02 04:04:42;;;;;;;13.50;7.13;;;;;;;11.83;89.49;102398.16;5022564;28;21017;-65
2021/09/02 04:07:09;;;;;;;14.02;7.75;;;;;;;11.92;89.66;102401.69;5015044;28;20053;-65
2021/09/02 04:09:35;;;;;;;15.38;7.97;;;;;;;11.96;89.88;102391.25;5014221;28;20101;-65
2021/09/02 04:12:01;;;;;;;19.00;8.07;;;;;;;11.97;90.31;102390.44;5019687;28;20042;-66
2021/09/02 04:14:28;;;;;;;15.63;8.52;;;;;;;11.97;90.72;102386.91;5022569;28;20050;-66
2021/09/02 04:16:56;;;;;;;19.27;8.70;;;;;;;12.01;91.17;102386.06;5016821;28;20681;-65
2021/09/02 04:19:23;;;;;;;16.30;8.98;;;;;;;11.93;91.97;102382.53;5022109;28;20050;-66
2021/09/02 04:21:50;;;;;;;23.17;8.98;;;;;;;11.90;92.58;102382.53;5018627;28;20046;-66
2021/09/02 04:24:16;;;;;;;17.02;10.15;;;;;;;11.89;93.08;102380.81;5020613;28;20099;-66
2021/09/02 04:26:43;;;;;;;20.50;9.57;;;;;;;11.91;93.27;102373.84;5024709;28;20056;-65
2021/09/02 04:29:10;;;;;;;16.98;9.50;;;;;;;11.88;93.72;102379.06;5020427;28;20105;-66
2021/09/02 04:31:36;;;;;;;21.10;9.63;;;;;;;11.83;94.30;102366.88;5019930;28;20111;-65
2021/09/02 04:34:04;;;;;;;19.83;10.27;;;;;;;11.81;95.08;102376.44;5024228;28;20058;-66
2021/09/02 04:36:31;;;;;;;18.80;10.68;;;;;;;11.78;95.37;102373.81;5020583;28;20080;-65
2021/09/02 04:38:57;;;;;;;19.10;10.45;;;;;;;11.88;95.50;102371.25;5018366;28;20057;-66
2021/09/02 04:41:24;;;;;;;20.60;10.93;;;;;;;11.98;95.50;102370.41;5016087;28;20093;-66
2021/09/02 04:43:50;;;;;;;17.23;9.48;;;;;;;12.03;95.40;102368.66;5023932;28;20049;-65
2021/09/02 04:46:16;;;;;;;17.75;9.75;;;;;;;12.04;95.26;102365.19;5018111;28;20042;-66
2021/09/02 04:48:43;;;;;;;25.65;12.75;;;;;;;12.05;95.45;102364.31;5023535;28;20459;-65
2021/09/02 04:51:11;;;;;;;16.90;11.05;;;;;;;12.07;95.53;102370.44;5018713;28;20488;-65
2021/09/02 04:53:37;;;;;;;17.30;10.07;;;;;;;12.08;95.30;102371.28;5023668;28;20483;-65
2021/09/02 04:56:04;;;;;;;18.40;10.20;;;;;;;12.12;95.34;102379.13;5016632;28;20132;-66
2021/09/02 04:58:30;;;;;;;18.02;11.07;;;;;;;12.11;95.40;102387.84;5019227;28;20460;-66
2021/09/02 05:00:57;;;;;;;20.58;10.70;;;;;;;12.08;95.47;102374.78;5018353;28;20046;-66
2021/09/02 05:03:23;;;;;;;20.05;11.07;;;;;;;12.12;95.57;102379.13;5023012;28;20045;-67
2021/09/02 05:05:50;;;;;;;20.33;11.32;;;;;;;12.21;95.71;102378.25;5021829;28;20049;-67
2021/09/02 05:08:18;;;;;;;23.88;11.85;;;;;;;12.24;95.42;102377.38;5019758;28;20057;-68
2021/09/02 05:10:44;;;;;;;21.85;12.02;;;;;;;12.33;95.10;102377.38;5020826;28;20041;-67
2021/09/02 05:13:11;;;;;;;22.70;12.10;;;;;;;12.39;94.81;102372.19;5020943;28;20058;-67
2021/09/02 05:15:37;;;;;;;19.17;12.35;;;;;;;12.42;94.53;102376.50;5021005;28;20050;-67
2021/09/02 05:18:04;;;;;;;18.38;11.25;;;;;;;12.35;94.47;102369.56;5017187;28;20401;-67
2021/09/02 05:20:31;;;;;;;24.10;11.52;;;;;;;12.33;94.49;102371.31;5019120;28;20131;-67
2021/09/02 05:22:57;;;;;;;28.35;13.43;;;;;;;12.32;94.41;102375.66;5022069;28;20460;-67
2021/09/02 05:25:25;;;;;;;23.08;13.35;;;;;;;12.26;95.05;102373.03;5022364;28;20112;-67
2021/09/02 05:27:52;;;;;;;21.73;13.10;;;;;;;12.24;95.28;102367.84;5025855;28;20049;-68
2021/09/02 05:30:18;;;;;;;23.10;12.48;;;;;;;12.31;95.20;102366.09;5020044;28;20046;-67
2021/09/02 05:32:45;;;;;;;22.98;12.63;;;;;;;12.34;94.74;102360.00;5023552;28;20056;-66
2021/09/02 05:35:12;;;;;;;23.67;13.65;;;;;;;12.32;94.51;102364.34;5020995;28;20050;-65
2021/09/02 05:37:39;;;;;;;23.63;12.38;;;;;;;12.30;94.78;102361.75;5024223;28;20413;-65
2021/09/02 05:40:07;;;;;;;25.10;14.00;;;;;;;12.22;95.05;102363.50;5022369;28;20049;-65
2021/09/02 05:42:35;;;;;;;20.63;14.02;;;;;;;12.19;95.62;102368.69;5024231;28;20057;-67
2021/09/02 05:45:02;;;;;;;25.25;14.45;;;;;;;12.19;95.90;102369.56;5024106;28;20038;-67
2021/09/02 05:47:28;;;;;;;24.77;14.27;;;;;;;12.22;95.87;102366.09;5026490;28;20053;-67
2021/09/02 05:49:54;;;;;;;25.77;14.60;;;;;;;12.31;95.77;102366.09;5021639;28;20112;-66
2021/09/02 05:52:21;;;;;;;22.60;13.57;;;;;;;12.35;95.70;102359.13;5029979;28;20424;-67
2021/09/02 05:54:53;;;;;;;25.08;14.25;;;;;;;12.38;95.55;102356.50;5039313;28;20067;-67
2021/09/02 05:57:19;;;;;;;24.25;14.77;;;;;;;12.45;95.34;102363.47;5029639;28;20566;-67
2021/09/02 05:59:47;;;;;;;24.27;13.98;;;;;;;12.52;95.02;102366.94;5019519;28;20116;-67
2021/09/02 06:02:14;;;;;;;25.70;13.75;;;;;;;12.60;94.73;102371.28;5028572;28;20046;-67
2021/09/02 06:04:40;;;;;;;24.95;14.40;;;;;;;12.63;94.38;102367.78;5032667;28;20045;-67
2021/09/02 06:07:06;;;;;;;26.48;14.70;;;;;;;12.66;94.61;102369.53;5033343;28;20053;-66
2021/09/02 06:09:33;;;;;;;22.33;14.02;;;;;;;12.73;94.41;102374.72;5018876;28;20053;-66
2021/09/02 06:11:59;;;;;;;27.20;14.88;;;;;;;12.79;94.29;102370.38;5024074;28;20053;-67
2021/09/02 06:14:26;;;;;;;28.88;14.95;;;;;;;12.88;93.79;102372.97;5037364;28;20049;-67
2021/09/02 06:16:54;;;;;;;27.67;14.57;;;;;;;12.89;93.41;102372.09;5029179;28;20054;-66
2021/09/02 06:19:20;;;;;;;29.40;15.25;;;;;;;12.96;93.54;102379.03;5022612;28;20053;-66
2021/09/02 06:21:46;;;;;;;30.90;16.27;;;;;;;13.00;93.31;102375.56;5023187;28;20049;-67
2021/09/02 06:24:13;;;;;;;30.10;16.33;;;;;;;13.19;92.79;102385.94;5020245;28;20795;-67
2021/09/02 06:26:39;;;;;;;24.48;15.73;;;;;;;13.17;92.78;102380.72;5036621;28;20079;-67
2021/09/02 06:29:06;;;;;;;24.15;14.85;;;;;;;13.31;92.78;102391.13;5032960;28;20061;-66
2021/09/02 06:31:32;;;;;;;25.83;14.95;;;;;;;13.36;92.69;102391.97;5031378;28;20100;-66
2021/09/02 06:34:00;;;;;;;27.00;15.88;;;;;;;13.43;92.05;102385.00;5030944;28;20045;-67
2021/09/02 06:36:26;;;;;;;28.63;15.20;;;;;;;13.46;91.75;102389.34;5030065;28;20092;-67
2021/09/02 06:38:53;;;;;;;32.42;16.55;;;;;;;13.43;91.72;102386.72;5019260;28;20053;-67
2021/09/02 06:41:19;;;;;;;29.02;16.17;;;;;;;13.41;92.08;102391.97;5015612;28;20041;-66
2021/09/02 06:43:46;;;;;;;33.35;16.08;;;;;;;13.42;92.49;102390.25;5033631;28;20071;-68
2021/09/02 06:46:12;;;;;;;28.52;16.60;;;;;;;13.42;92.98;102392.84;5029749;28;20052;-67
2021/09/02 06:48:38;;;;;;;25.08;15.90;;;;;;;13.51;92.90;102377.97;5023960;28;20052;-67
2021/09/02 06:51:06;;;;;;;28.80;16.85;;;;;;;13.51;92.35;102392.81;5023779;28;20063;-67
2021/09/02 06:53:33;;;;;;;29.45;18.25;;;;;;;13.53;92.81;102385.81;5031309;28;20108;-65
2021/09/02 06:55:59;;;;;;;33.17;17.38;;;;;;;13.60;92.65;102386.66;5036056;28;20428;-67
2021/09/02 06:58:26;;;;;;;30.45;16.40;;;;;;;13.68;92.61;102379.63;5032813;28;20069;-66
2021/09/02 07:00:52;;;;;;;31.77;17.25;;;;;;;13.79;92.70;102382.19;5026587;28;20366;-65
2021/09/02 07:03:19;;;;;;;32.58;18.42;;;;;;;13.82;92.34;102382.19;5020902;28;20554;-67
2021/09/02 07:05:45;;;;;;;33.25;18.92;;;;;;;13.87;92.42;102385.63;5032905;28;20049;-67
2021/09/02 07:08:13;;;;;;;32.35;17.75;;;;;;;13.89;92.56;102393.44;5034716;28;20496;-67
2021/09/02 07:10:40;;;;;;;31.00;18.45;;;;;;;13.95;92.19;102396.91;5019350;28;20061;-67
2021/09/02 07:13:06;;;;;;;31.85;18.58;;;;;;;14.03;92.34;102398.59;5020153;28;20532;-67
2021/09/02 07:15:33;;;;;;;32.67;16.63;;;;;;;14.13;91.91;102389.78;5022300;28;20058;-66
2021/09/02 07:17:59;;;;;;;28.17;17.65;;;;;;;14.18;91.46;102390.66;5021616;28;20057;-67
2021/09/02 07:20:26;;;;;;;29.92;17.70;;;;;;;14.28;91.29;102391.44;5024062;28;20088;-67
2021/09/02 07:22:53;;;;;;;30.70;17.25;;;;;;;14.38;91.32;102394.84;5026672;28;20045;-66
2021/09/02 07:25:21;;;;;;;28.23;16.75;;;;;;;14.41;90.94;102400.91;5024359;28;20061;-67
2021/09/02 07:27:47;;;;;;;36.15;17.58;;;;;;;14.40;90.94;102398.34;5031561;28;20041;-67
2021/09/02 07:30:14;;;;;;;33.53;17.95;;;;;;;14.42;91.28;102396.56;5018624;28;20057;-67
2021/09/02 07:32:40;;;;;;;34.10;17.23;;;;;;;14.45;91.73;102407.00;5020645;28;20045;-68
2021/09/02 07:35:08;;;;;;;33.45;17.05;;;;;;;14.52;91.40;102403.47;5013715;28;20057;-67
2021/09/02 07:37:34;;;;;;;30.55;17.23;;;;;;;14.58;91.35;102408.63;5012080;28;20445;-67
2021/09/02 07:40:00;;;;;;;32.78;18.17;;;;;;;14.69;91.46;102411.16;5007160;28;20049;-67
2021/09/02 07:42:28;;;;;;;34.65;17.27;;;;;;;14.74;91.46;102405.88;5010274;28;22347;-68
2021/09/02 07:44:55;;;;;;;30.55;16.65;;;;;;;14.84;91.61;102404.06;5006162;28;20520;-65
2021/09/02 07:47:22;;;;;;;33.60;17.70;;;;;;;14.92;91.16;102407.47;5004455;28;20111;-68
2021/09/02 07:49:48;;;;;;;33.20;17.80;;;;;;;14.95;91.02;102406.56;5002153;28;20421;-67
2021/09/02 07:52:15;;;;;;;29.75;17.30;;;;;;;15.05;91.30;102405.56;5007021;28;20501;-67
2021/09/02 07:54:41;;;;;;;34.03;17.45;;;;;;;15.23;90.75;102407.97;5018522;28;20401;-67
2021/09/02 07:57:08;;;;;;;31.15;15.85;;;;;;;15.27;90.41;102405.31;5014942;28;20053;-67
2021/09/02 07:59:36;;;;;;;28.55;16.95;;;;;;;15.31;90.37;102412.28;5020569;28;20055;-67
2021/09/02 08:02:02;;;;;;;36.75;18.15;;;;;;;15.32;89.76;102407.00;5010594;28;20046;-65
2021/09/02 08:04:29;;;;;;;36.90;17.83;;;;;;;15.38;89.86;102411.31;5012896;28;20058;-65
2021/09/02 08:06:55;;;;;;;34.83;17.30;;;;;;;15.60;89.12;102408.41;5008175;28;20425;-65
2021/09/02 08:09:21;;;;;;;33.35;16.63;;;;;;;15.63;88.76;102410.97;5006636;28;20057;-66
2021/09/02 08:11:48;;;;;;;33.85;16.83;;;;;;;15.65;88.46;102409.19;5010200;28;20052;-65
2021/09/02 08:14:14;;;;;;;35.22;16.77;;;;;;;15.67;87.98;102396.94;5007368;28;20417;-64
2021/09/02 08:16:42;;;;;;;41.50;16.83;;;;;;;15.79;87.41;102401.13;5003202;28;20103;-65
2021/09/02 08:19:09;;;;;;;38.40;16.70;;;;;;;15.92;87.23;102409.75;5009119;28;22623;-66
2021/09/02 08:21:35;;;;;;;35.83;17.20;;;;;;;15.99;86.99;102408.75;5015300;28;20056;-65
2021/09/02 08:24:02;;;;;;;34.55;17.48;;;;;;;16.16;86.14;102411.13;5005748;28;20084;-65
2021/09/02 08:26:28;;;;;;;33.38;17.33;;;;;;;16.31;85.34;102404.78;5008471;28;20061;-66
2021/09/02 08:28:55;;;;;;;37.78;16.63;;;;;;;16.46;85.29;102407.13;5003946;28;20509;-65
2021/09/02 08:31:22;;;;;;;34.42;16.05;;;;;;;16.47;84.20;102406.22;5005161;28;20057;-66
2021/09/02 08:33:50;;;;;;;31.40;14.38;;;;;;;16.52;84.11;102410.56;5008398;28;20038;-65
2021/09/02 08:36:16;;;;;;;31.40;15.15;;;;;;;16.58;83.08;102405.19;5012539;28;20045;-66
2021/09/02 08:38:47;;;;;;;31.08;14.70;;;;;;;16.55;83.44;102400.84;5005091;28;20073;-65
2021/09/02 08:41:14;;;;;;;25.23;14.05;;;;;;;16.65;83.85;102392.81;5007319;28;20050;-66
2021/09/02 08:43:42;;;;;;;34.90;16.65;;;;;;;16.72;83.23;102391.78;5002782;28;20049;-66
2021/09/02 08:46:08;;;;;;;41.20;15.15;;;;;;;16.87;82.37;102385.38;5009723;28;20072;-66
2021/09/02 08:48:38;;;;;;;28.27;14.52;;;;;;;16.84;81.81;102388.06;5003016;28;20061;-68
2021/09/02 08:51:06;;;;;;;27.85;14.27;;;;;;;16.81;81.84;102388.13;5006329;28;20441;-65
2021/09/02 08:53:33;;;;;;;34.13;15.15;;;;;;;16.74;81.85;102385.59;5003218;28;20057;-66
2021/09/02 08:55:59;;;;;;;34.88;15.73;;;;;;;16.73;82.51;102390.91;5004148;28;20053;-65
2021/09/02 08:58:25;;;;;;;30.88;14.80;;;;;;;16.76;82.57;102394.34;5008886;28;20057;-66
2021/09/02 09:00:52;;;;;;;34.83;14.52;;;;;;;16.73;82.30;102402.25;5012349;28;20057;-65
2021/09/02 09:03:20;;;;;;;30.90;15.07;;;;;;;16.72;82.60;102402.31;5011586;28;20042;-66
2021/09/02 09:05:53;;;;;;;31.23;15.05;;;;;;;16.74;81.64;102396.13;5005126;28;20429;-65
2021/09/02 09:08:31;;;;;;;36.97;14.27;;;;;;;16.81;81.68;102396.03;5006726;28;20103;-65
2021/09/02 09:11:13;;;;;;;27.83;13.35;;;;;;;16.87;81.90;102401.16;5009004;28;20144;-66
2021/09/02 09:13:39;;;;;;;28.63;13.45;;;;;;;16.92;81.61;102405.41;5009442;28;20111;-65
2021/09/02 09:16:06;;;;;;;30.55;14.07;;;;;;;16.97;81.57;102399.25;5006932;28;20053;-64
2021/09/02 09:18:32;;;;;;;37.83;15.00;;;;;;;17.06;80.34;102405.19;5006056;28;20106;-65
2021/09/02 09:21:06;;;;;;;29.50;14.60;;;;;;;17.07;79.82;102396.41;5007556;28;20131;-66
2021/09/02 09:23:52;;;;;;;26.83;13.60;;;;;;;17.12;80.56;102398.09;5006795;28;20052;-65
2021/09/02 09:26:21;;;;;;;28.15;14.25;;;;;;;17.21;79.64;102396.13;5007262;28;20085;-65
2021/09/02 09:28:47;;;;;;;27.92;13.60;;;;;;;17.16;78.98;102392.72;5009751;28;20046;-65
2021/09/02 09:31:28;;;;;;;30.42;14.52;;;;;;;17.22;79.44;102391.72;5009790;28;20053;-65
2021/09/02 09:33:56;;;;;;;32.95;13.35;;;;;;;17.29;79.09;102392.47;5011240;28;20424;-66
2021/09/02 09:36:23;;;;;;;29.13;12.82;;;;;;;17.45;79.41;102390.38;5012758;28;20515;-65
2021/09/02 09:39:06;;;;;;;28.40;12.82;;;;;;;17.73;78.90;102388.00;5009828;28;20120;-64
2021/09/02 09:41:37;;;;;;;26.40;13.65;;;;;;;18.01;77.13;102387.38;5010610;28;20152;-65
2021/09/02 09:44:23;;;;;;;25.38;13.15;;;;;;;18.23;75.53;102385.06;5006394;28;20068;-65
2021/09/02 09:47:14;;;;;;;28.48;13.40;;;;;;;18.56;74.94;102385.13;5017523;28;20040;-65
2021/09/02 09:49:46;;;;;;;32.97;13.63;;;;;;;18.70;74.67;102387.38;5010667;28;20056;-65
2021/09/02 09:52:21;;;;;;;24.25;14.23;;;;;;;18.67;73.90;102398.00;5009543;28;20045;-64
2021/09/02 09:54:49;;;;;;;30.30;13.70;;;;;;;18.62;73.63;102381.47;5006433;28;20049;-64
2021/09/02 09:57:16;;;;;;;28.60;12.45;;;;;;;18.75;74.27;102376.72;5006724;28;20053;-64
2021/09/02 09:59:43;;;;;;;23.98;13.07;;;;;;;18.65;72.94;102379.59;5011281;28;20649;-64
2021/09/02 10:02:10;;;;;;;30.80;14.07;;;;;;;18.71;72.01;102377.72;5009982;28;20072;-64
2021/09/02 10:04:38;;;;;;;27.95;14.35;;;;;;;18.70;72.89;102374.19;5010243;28;20057;-65
2021/09/02 10:07:05;;;;;;;26.80;13.98;;;;;;;18.77;73.38;102378.38;5009862;28;20057;-64
2021/09/02 10:09:33;;;;;;;31.17;15.23;;;;;;;18.78;73.01;102374.00;5012219;28;21204;-64
2021/09/02 10:12:02;;;;;;;28.08;13.45;;;;;;;18.71;72.54;102373.28;5014481;28;20479;-64
2021/09/02 10:14:29;;;;;;;28.13;13.60;;;;;;;18.68;72.66;102373.38;5011606;28;20532;-65
2021/09/02 10:16:57;;;;;;;31.77;14.75;;;;;;;18.71;71.46;102372.44;5009992;28;20045;-64
2021/09/02 10:19:25;;;;;;;27.15;13.45;;;;;;;18.68;71.98;102368.09;5019482;28;20181;-64
2021/09/02 10:21:53;;;;;;;28.58;13.48;;;;;;;18.86;72.13;102358.81;5012044;28;20053;-66
2021/09/02 10:24:39;;;;;;;24.45;13.77;;;;;;;19.03;70.57;102368.06;5010661;28;20038;-66
2021/09/02 10:27:40;;;;;;;24.20;12.90;;;;;;;19.05;70.81;102366.25;5004998;28;20050;-65
2021/09/02 10:30:24;;;;;;;26.40;13.30;;;;;;;18.86;70.65;102366.75;5013788;28;20452;-65
2021/09/02 10:32:51;;;;;;;27.85;14.73;;;;;;;18.93;70.58;102363.03;5025399;28;20045;-64
2021/09/02 10:35:35;;;;;;;27.80;14.02;;;;;;;18.92;70.97;102357.78;5020728;28;20037;-65
2021/09/02 10:38:03;;;;;;;30.15;15.05;;;;;;;18.74;71.00;102351.25;5022332;28;20056;-65
2021/09/02 10:40:50;;;;;;;28.63;14.77;;;;;;;18.75;71.84;102351.22;5026528;28;20065;-66
2021/09/02 10:43:47;;;;;;;32.72;15.23;;;;;;;18.76;71.58;102350.31;5020702;28;20432;-65
2021/09/02 10:46:28;;;;;;;30.85;15.55;;;;;;;18.70;71.93;102352.25;5029188;28;20501;-66
2021/09/02 10:48:55;;;;;;;29.45;16.67;;;;;;;18.58;72.00;102348.16;5025351;28;20119;-65
2021/09/02 10:51:36;;;;;;;29.50;15.30;;;;;;;18.56;73.05;102348.22;5029162;28;20510;-65
2021/09/02 10:54:05;;;;;;;32.40;15.25;;;;;;;18.59;73.62;102340.25;5025774;28;20038;-65
2021/09/02 10:56:33;;;;;;;28.02;14.18;;;;;;;18.63;72.63;102338.38;5028782;28;20045;-65
2021/09/02 10:59:02;;;;;;;26.15;14.80;;;;;;;18.65;72.62;102337.44;5030344;28;20156;-66
2021/09/02 11:01:31;;;;;;;30.58;15.00;;;;;;;18.69;72.51;102334.72;5026390;28;20065;-65
2021/09/02 11:04:00;;;;;;;30.98;15.75;;;;;;;18.69;72.19;102334.72;5022017;28;20496;-65
2021/09/02 11:06:26;;;;;;;24.45;15.15;;;;;;;18.82;72.07;102335.22;5031651;28;20471;-66
2021/09/02 11:08:53;;;;;;;32.17;14.90;;;;;;;18.91;71.81;102327.94;5027220;28;20079;-65
2021/09/02 11:11:20;;;;;;;26.15;16.67;;;;;;;19.01;71.59;102328.53;5024707;28;20061;-65
2021/09/02 11:13:49;;;;;;;25.48;15.43;;;;;;;18.99;72.20;102326.88;5017929;28;20041;-65
2021/09/02 11:16:19;;;;;;;27.13;15.90;;;;;;;18.95;72.77;102326.09;5021505;28;20072;-65